sensor_id;sensor_type;location;lat;lon;timestamp;P1;durP1;ratioP1;P2;durP2;ratioP2
75781;SDS011;64400;44.762;37.698;2023-03-14T00:00:15;12.70;;;6.47;;
75781;SDS011;64400;44.762;37.698;2023-03-14T00:03:07;15.82;;;7.70;;
75781;SDS011;64400;44.762;37.698;2023-03-14T00:05:56;16.15;;;8.60;;
75781;SDS011;64400;44.762;37.698;2023-03-14T00:08:44;14.50;;;7.55;;
75781;SDS011;64400;44.762;37.698;2023-03-14T00:11:33;16.38;;;8.73;;
75781;SDS011;64400;44.762;37.698;2023-03-14T00:14:03;21.27;;;9.32;;
75781;SDS011;64400;44.762;37.698;2023-03-14T00:16:52;17.13;;;9.18;;
75781;SDS011;64400;44.762;37.698;2023-03-14T00:19:41;15.38;;;8.48;;
75781;SDS011;64400;44.762;37.698;2023-03-14T00:22:22;14.60;;;7.88;;
75781;SDS011;64400;44.762;37.698;2023-03-14T00:25:11;22.20;;;9.43;;
75781;SDS011;64400;44.762;37.698;2023-03-14T00:28:00;18.38;;;8.55;;
75781;SDS011;64400;44.762;37.698;2023-03-14T00:30:27;17.35;;;9.40;;
75781;SDS011;64400;44.762;37.698;2023-03-14T00:32:57;17.02;;;9.15;;
75781;SDS011;64400;44.762;37.698;2023-03-14T00:35:52;15.45;;;7.93;;
75781;SDS011;64400;44.762;37.698;2023-03-14T00:38:45;19.15;;;9.60;;
75781;SDS011;64400;44.762;37.698;2023-03-14T00:41:36;19.15;;;9.90;;
75781;SDS011;64400;44.762;37.698;2023-03-14T00:44:02;17.95;;;8.15;;
75781;SDS011;64400;44.762;37.698;2023-03-14T00:46:29;17.60;;;7.68;;
75781;SDS011;64400;44.762;37.698;2023-03-14T00:48:55;15.25;;;8.50;;
75781;SDS011;64400;44.762;37.698;2023-03-14T00:51:23;15.75;;;8.05;;
75781;SDS011;64400;44.762;37.698;2023-03-14T00:53:49;19.38;;;9.77;;
75781;SDS011;64400;44.762;37.698;2023-03-14T00:56:16;17.13;;;9.13;;
75781;SDS011;64400;44.762;37.698;2023-03-14T01:01:17;16.58;;;8.80;;
75781;SDS011;64400;44.762;37.698;2023-03-14T01:04:07;15.73;;;7.78;;
75781;SDS011;64400;44.762;37.698;2023-03-14T01:06:56;15.85;;;7.93;;
75781;SDS011;64400;44.762;37.698;2023-03-14T01:09:44;12.23;;;5.43;;
75781;SDS011;64400;44.762;37.698;2023-03-14T01:12:33;15.98;;;7.97;;
75781;SDS011;64400;44.762;37.698;2023-03-14T01:15:16;16.52;;;8.27;;
75781;SDS011;64400;44.762;37.698;2023-03-14T01:17:59;15.82;;;7.88;;
75781;SDS011;64400;44.762;37.698;2023-03-14T01:20:42;16.05;;;8.07;;
75781;SDS011;64400;44.762;37.698;2023-03-14T01:23:24;16.55;;;8.50;;
75781;SDS011;64400;44.762;37.698;2023-03-14T01:26:10;15.43;;;7.00;;
75781;SDS011;64400;44.762;37.698;2023-03-14T01:28:54;12.02;;;5.32;;
75781;SDS011;64400;44.762;37.698;2023-03-14T01:31:43;11.50;;;5.32;;
75781;SDS011;64400;44.762;37.698;2023-03-14T01:34:33;16.30;;;8.05;;
75781;SDS011;64400;44.762;37.698;2023-03-14T01:37:03;9.13;;;4.13;;
75781;SDS011;64400;44.762;37.698;2023-03-14T01:39:52;17.15;;;9.02;;
75781;SDS011;64400;44.762;37.698;2023-03-14T01:42:33;17.65;;;8.73;;
75781;SDS011;64400;44.762;37.698;2023-03-14T01:48:53;15.65;;;7.63;;
75781;SDS011;64400;44.762;37.698;2023-03-14T01:51:52;18.08;;;8.85;;
75781;SDS011;64400;44.762;37.698;2023-03-14T01:54:58;18.63;;;8.77;;
75781;SDS011;64400;44.762;37.698;2023-03-14T01:57:32;14.05;;;7.70;;
75781;SDS011;64400;44.762;37.698;2023-03-14T02:00:19;12.13;;;5.88;;
75781;SDS011;64400;44.762;37.698;2023-03-14T02:03:05;19.35;;;8.45;;
75781;SDS011;64400;44.762;37.698;2023-03-14T02:05:59;13.45;;;6.30;;
75781;SDS011;64400;44.762;37.698;2023-03-14T02:08:47;16.50;;;8.30;;
75781;SDS011;64400;44.762;37.698;2023-03-14T02:11:33;15.30;;;6.63;;
75781;SDS011;64400;44.762;37.698;2023-03-14T02:14:35;14.25;;;7.55;;
75781;SDS011;64400;44.762;37.698;2023-03-14T02:17:20;15.57;;;7.53;;
75781;SDS011;64400;44.762;37.698;2023-03-14T02:23:25;14.85;;;8.05;;
75781;SDS011;64400;44.762;37.698;2023-03-14T02:26:13;17.52;;;8.40;;
75781;SDS011;64400;44.762;37.698;2023-03-14T02:28:51;16.30;;;7.57;;
75781;SDS011;64400;44.762;37.698;2023-03-14T02:31:41;15.88;;;7.65;;
75781;SDS011;64400;44.762;37.698;2023-03-14T02:34:23;11.65;;;5.72;;
75781;SDS011;64400;44.762;37.698;2023-03-14T02:37:06;12.75;;;6.32;;
75781;SDS011;64400;44.762;37.698;2023-03-14T02:39:56;16.75;;;7.65;;
75781;SDS011;64400;44.762;37.698;2023-03-14T02:42:46;14.10;;;7.38;;
75781;SDS011;64400;44.762;37.698;2023-03-14T02:45:41;11.60;;;5.95;;
75781;SDS011;64400;44.762;37.698;2023-03-14T02:48:35;14.88;;;7.10;;
75781;SDS011;64400;44.762;37.698;2023-03-14T02:51:21;13.95;;;6.60;;
75781;SDS011;64400;44.762;37.698;2023-03-14T02:54:05;12.35;;;6.70;;
75781;SDS011;64400;44.762;37.698;2023-03-14T02:56:48;13.75;;;7.32;;
75781;SDS011;64400;44.762;37.698;2023-03-14T02:59:29;13.82;;;6.97;;
75781;SDS011;64400;44.762;37.698;2023-03-14T03:02:15;13.23;;;7.55;;
75781;SDS011;64400;44.762;37.698;2023-03-14T03:04:57;13.85;;;6.43;;
75781;SDS011;64400;44.762;37.698;2023-03-14T03:07:40;14.13;;;6.28;;
75781;SDS011;64400;44.762;37.698;2023-03-14T03:10:29;12.77;;;6.85;;
75781;SDS011;64400;44.762;37.698;2023-03-14T03:13:19;13.63;;;6.93;;
75781;SDS011;64400;44.762;37.698;2023-03-14T03:16:03;13.00;;;6.53;;
75781;SDS011;64400;44.762;37.698;2023-03-14T03:18:45;13.55;;;6.93;;
75781;SDS011;64400;44.762;37.698;2023-03-14T03:21:26;13.02;;;6.68;;
75781;SDS011;64400;44.762;37.698;2023-03-14T03:24:15;13.75;;;6.95;;
75781;SDS011;64400;44.762;37.698;2023-03-14T03:26:41;14.30;;;6.78;;
75781;SDS011;64400;44.762;37.698;2023-03-14T03:29:10;14.18;;;6.22;;
75781;SDS011;64400;44.762;37.698;2023-03-14T03:31:37;11.40;;;5.43;;
75781;SDS011;64400;44.762;37.698;2023-03-14T03:34:04;10.88;;;6.15;;
75781;SDS011;64400;44.762;37.698;2023-03-14T03:36:49;13.05;;;6.75;;
75781;SDS011;64400;44.762;37.698;2023-03-14T03:39:21;12.05;;;6.60;;
75781;SDS011;64400;44.762;37.698;2023-03-14T03:42:11;13.63;;;6.63;;
75781;SDS011;64400;44.762;37.698;2023-03-14T03:44:42;13.23;;;6.30;;
75781;SDS011;64400;44.762;37.698;2023-03-14T03:47:33;13.35;;;6.57;;
75781;SDS011;64400;44.762;37.698;2023-03-14T03:50:22;10.07;;;5.03;;
75781;SDS011;64400;44.762;37.698;2023-03-14T03:52:53;10.45;;;4.75;;
75781;SDS011;64400;44.762;37.698;2023-03-14T03:55:41;7.38;;;3.75;;
75781;SDS011;64400;44.762;37.698;2023-03-14T03:58:30;11.63;;;5.85;;
75781;SDS011;64400;44.762;37.698;2023-03-14T04:00:57;15.10;;;6.40;;
75781;SDS011;64400;44.762;37.698;2023-03-14T04:03:39;13.13;;;6.22;;
75781;SDS011;64400;44.762;37.698;2023-03-14T04:06:21;17.27;;;7.20;;
75781;SDS011;64400;44.762;37.698;2023-03-14T04:09:03;9.32;;;4.35;;
75781;SDS011;64400;44.762;37.698;2023-03-14T04:12:00;14.52;;;6.97;;
75781;SDS011;64400;44.762;37.698;2023-03-14T04:14:48;14.60;;;5.93;;
75781;SDS011;64400;44.762;37.698;2023-03-14T04:17:44;13.13;;;6.40;;
75781;SDS011;64400;44.762;37.698;2023-03-14T04:20:34;12.77;;;6.20;;
75781;SDS011;64400;44.762;37.698;2023-03-14T04:23:16;13.77;;;7.20;;
75781;SDS011;64400;44.762;37.698;2023-03-14T04:26:04;15.30;;;7.25;;
75781;SDS011;64400;44.762;37.698;2023-03-14T04:28:53;12.10;;;6.45;;
75781;SDS011;64400;44.762;37.698;2023-03-14T04:31:31;13.50;;;6.90;;
75781;SDS011;64400;44.762;37.698;2023-03-14T04:34:05;14.20;;;7.45;;
75781;SDS011;64400;44.762;37.698;2023-03-14T04:36:56;14.27;;;7.40;;
75781;SDS011;64400;44.762;37.698;2023-03-14T04:39:45;14.90;;;7.60;;
75781;SDS011;64400;44.762;37.698;2023-03-14T04:42:33;16.40;;;7.70;;
75781;SDS011;64400;44.762;37.698;2023-03-14T04:45:15;16.05;;;8.52;;
75781;SDS011;64400;44.762;37.698;2023-03-14T04:48:06;16.50;;;8.15;;
75781;SDS011;64400;44.762;37.698;2023-03-14T04:50:48;14.25;;;7.18;;
75781;SDS011;64400;44.762;37.698;2023-03-14T04:53:33;17.17;;;6.57;;
75781;SDS011;64400;44.762;37.698;2023-03-14T04:56:15;14.68;;;7.38;;
75781;SDS011;64400;44.762;37.698;2023-03-14T04:59:00;15.20;;;8.48;;
75781;SDS011;64400;44.762;37.698;2023-03-14T05:01:51;16.25;;;8.35;;
75781;SDS011;64400;44.762;37.698;2023-03-14T05:04:54;13.93;;;6.80;;
75781;SDS011;64400;44.762;37.698;2023-03-14T05:07:45;14.68;;;7.70;;
75781;SDS011;64400;44.762;37.698;2023-03-14T05:10:43;13.00;;;7.32;;
75781;SDS011;64400;44.762;37.698;2023-03-14T05:13:45;13.60;;;6.97;;
75781;SDS011;64400;44.762;37.698;2023-03-14T05:16:44;14.05;;;6.75;;
75781;SDS011;64400;44.762;37.698;2023-03-14T05:20:02;15.70;;;7.93;;
75781;SDS011;64400;44.762;37.698;2023-03-14T05:23:09;14.45;;;7.78;;
75781;SDS011;64400;44.762;37.698;2023-03-14T05:26:02;16.05;;;7.60;;
75781;SDS011;64400;44.762;37.698;2023-03-14T05:29:02;15.18;;;7.32;;
75781;SDS011;64400;44.762;37.698;2023-03-14T05:31:56;15.10;;;6.82;;
75781;SDS011;64400;44.762;37.698;2023-03-14T05:35:05;15.93;;;7.10;;
75781;SDS011;64400;44.762;37.698;2023-03-14T05:38:07;14.20;;;7.03;;
75781;SDS011;64400;44.762;37.698;2023-03-14T05:41:10;13.48;;;6.70;;
75781;SDS011;64400;44.762;37.698;2023-03-14T05:44:18;11.40;;;5.80;;
75781;SDS011;64400;44.762;37.698;2023-03-14T05:47:30;12.70;;;7.00;;
75781;SDS011;64400;44.762;37.698;2023-03-14T05:50:53;14.85;;;7.85;;
75781;SDS011;64400;44.762;37.698;2023-03-14T05:53:45;13.63;;;7.65;;
75781;SDS011;64400;44.762;37.698;2023-03-14T05:56:36;15.82;;;7.72;;
75781;SDS011;64400;44.762;37.698;2023-03-14T05:59:34;15.02;;;7.63;;
75781;SDS011;64400;44.762;37.698;2023-03-14T06:02:44;13.23;;;6.45;;
75781;SDS011;64400;44.762;37.698;2023-03-14T06:05:22;16.48;;;7.18;;
75781;SDS011;64400;44.762;37.698;2023-03-14T06:07:57;14.38;;;6.43;;
75781;SDS011;64400;44.762;37.698;2023-03-14T06:10:30;13.88;;;6.72;;
75781;SDS011;64400;44.762;37.698;2023-03-14T06:13:24;16.40;;;7.97;;
75781;SDS011;64400;44.762;37.698;2023-03-14T06:15:54;17.58;;;8.02;;
75781;SDS011;64400;44.762;37.698;2023-03-14T06:18:43;13.15;;;6.68;;
75781;SDS011;64400;44.762;37.698;2023-03-14T06:21:35;14.10;;;6.68;;
75781;SDS011;64400;44.762;37.698;2023-03-14T06:24:25;15.43;;;7.60;;
75781;SDS011;64400;44.762;37.698;2023-03-14T06:27:15;20.10;;;7.75;;
75781;SDS011;64400;44.762;37.698;2023-03-14T06:29:43;16.50;;;6.60;;
75781;SDS011;64400;44.762;37.698;2023-03-14T06:32:32;16.08;;;7.72;;
75781;SDS011;64400;44.762;37.698;2023-03-14T06:35:04;14.60;;;7.68;;
75781;SDS011;64400;44.762;37.698;2023-03-14T06:37:35;14.35;;;7.82;;
75781;SDS011;64400;44.762;37.698;2023-03-14T06:40:24;15.07;;;7.75;;
75781;SDS011;64400;44.762;37.698;2023-03-14T06:43:17;15.05;;;7.55;;
75781;SDS011;64400;44.762;37.698;2023-03-14T06:46:07;14.18;;;7.30;;
75781;SDS011;64400;44.762;37.698;2023-03-14T06:48:57;17.13;;;7.80;;
75781;SDS011;64400;44.762;37.698;2023-03-14T06:51:30;16.60;;;7.63;;
75781;SDS011;64400;44.762;37.698;2023-03-14T06:54:19;13.63;;;7.05;;
75781;SDS011;64400;44.762;37.698;2023-03-14T06:56:46;15.93;;;7.43;;
75781;SDS011;64400;44.762;37.698;2023-03-14T06:59:16;16.45;;;8.43;;
75781;SDS011;64400;44.762;37.698;2023-03-14T07:02:07;16.38;;;7.70;;
75781;SDS011;64400;44.762;37.698;2023-03-14T07:05:01;16.52;;;7.20;;
75781;SDS011;64400;44.762;37.698;2023-03-14T07:07:42;14.02;;;6.88;;
75781;SDS011;64400;44.762;37.698;2023-03-14T07:10:24;15.75;;;7.13;;
75781;SDS011;64400;44.762;37.698;2023-03-14T07:13:07;15.77;;;7.25;;
75781;SDS011;64400;44.762;37.698;2023-03-14T07:15:55;12.85;;;6.97;;
75781;SDS011;64400;44.762;37.698;2023-03-14T07:18:37;15.07;;;7.43;;
75781;SDS011;64400;44.762;37.698;2023-03-14T07:21:19;12.60;;;6.90;;
75781;SDS011;64400;44.762;37.698;2023-03-14T07:24:11;14.73;;;7.28;;
75781;SDS011;64400;44.762;37.698;2023-03-14T07:26:42;12.88;;;6.97;;
75781;SDS011;64400;44.762;37.698;2023-03-14T07:29:32;13.48;;;7.25;;
75781;SDS011;64400;44.762;37.698;2023-03-14T07:32:20;14.32;;;7.40;;
75781;SDS011;64400;44.762;37.698;2023-03-14T07:35:12;12.55;;;6.70;;
75781;SDS011;64400;44.762;37.698;2023-03-14T07:37:53;14.50;;;7.60;;
75781;SDS011;64400;44.762;37.698;2023-03-14T07:40:41;15.75;;;7.30;;
75781;SDS011;64400;44.762;37.698;2023-03-14T07:43:24;13.35;;;6.32;;
75781;SDS011;64400;44.762;37.698;2023-03-14T07:46:06;12.50;;;6.25;;
75781;SDS011;64400;44.762;37.698;2023-03-14T07:48:49;12.30;;;6.90;;
75781;SDS011;64400;44.762;37.698;2023-03-14T07:51:31;12.00;;;6.60;;
75781;SDS011;64400;44.762;37.698;2023-03-14T07:54:12;11.70;;;6.60;;
75781;SDS011;64400;44.762;37.698;2023-03-14T07:57:01;12.65;;;6.38;;
75781;SDS011;64400;44.762;37.698;2023-03-14T07:59:51;10.55;;;6.10;;
75781;SDS011;64400;44.762;37.698;2023-03-14T08:02:40;13.07;;;7.25;;
75781;SDS011;64400;44.762;37.698;2023-03-14T08:05:07;14.20;;;7.05;;
75781;SDS011;64400;44.762;37.698;2023-03-14T08:10:00;14.23;;;7.00;;
75781;SDS011;64400;44.762;37.698;2023-03-14T08:12:26;13.75;;;6.82;;
75781;SDS011;64400;44.762;37.698;2023-03-14T08:14:53;10.50;;;6.07;;
75781;SDS011;64400;44.762;37.698;2023-03-14T08:17:19;11.35;;;6.82;;
75781;SDS011;64400;44.762;37.698;2023-03-14T08:20:01;13.27;;;7.03;;
75781;SDS011;64400;44.762;37.698;2023-03-14T08:22:31;12.45;;;6.70;;
75781;SDS011;64400;44.762;37.698;2023-03-14T08:25:00;14.48;;;6.95;;
75781;SDS011;64400;44.762;37.698;2023-03-14T08:27:29;11.63;;;6.75;;
75781;SDS011;64400;44.762;37.698;2023-03-14T08:30:10;14.77;;;7.22;;
75781;SDS011;64400;44.762;37.698;2023-03-14T08:33:01;12.85;;;7.50;;
75781;SDS011;64400;44.762;37.698;2023-03-14T08:35:52;13.35;;;6.88;;
75781;SDS011;64400;44.762;37.698;2023-03-14T08:38:44;12.90;;;6.95;;
75781;SDS011;64400;44.762;37.698;2023-03-14T08:41:33;11.07;;;6.55;;
75781;SDS011;64400;44.762;37.698;2023-03-14T08:44:21;11.88;;;6.75;;
75781;SDS011;64400;44.762;37.698;2023-03-14T08:47:03;11.80;;;6.22;;
75781;SDS011;64400;44.762;37.698;2023-03-14T08:49:45;12.70;;;6.55;;
75781;SDS011;64400;44.762;37.698;2023-03-14T08:52:27;11.77;;;6.57;;
75781;SDS011;64400;44.762;37.698;2023-03-14T08:55:09;11.65;;;6.35;;
75781;SDS011;64400;44.762;37.698;2023-03-14T08:57:52;11.30;;;7.05;;
75781;SDS011;64400;44.762;37.698;2023-03-14T09:00:34;11.38;;;6.25;;
75781;SDS011;64400;44.762;37.698;2023-03-14T09:03:23;14.55;;;8.20;;
75781;SDS011;64400;44.762;37.698;2023-03-14T09:06:06;14.75;;;8.32;;
75781;SDS011;64400;44.762;37.698;2023-03-14T09:08:56;11.98;;;7.30;;
75781;SDS011;64400;44.762;37.698;2023-03-14T09:11:45;13.82;;;6.35;;
75781;SDS011;64400;44.762;37.698;2023-03-14T09:14:34;11.63;;;6.65;;
75781;SDS011;64400;44.762;37.698;2023-03-14T09:17:00;13.68;;;5.93;;
75781;SDS011;64400;44.762;37.698;2023-03-14T09:19:27;9.63;;;5.68;;
75781;SDS011;64400;44.762;37.698;2023-03-14T09:21:53;12.88;;;6.65;;
75781;SDS011;64400;44.762;37.698;2023-03-14T09:24:20;15.90;;;6.25;;
75781;SDS011;64400;44.762;37.698;2023-03-14T09:27:02;13.60;;;6.85;;
75781;SDS011;64400;44.762;37.698;2023-03-14T09:29:50;14.88;;;6.20;;
75781;SDS011;64400;44.762;37.698;2023-03-14T09:32:32;12.45;;;6.68;;
75781;SDS011;64400;44.762;37.698;2023-03-14T09:35:20;16.33;;;7.40;;
75781;SDS011;64400;44.762;37.698;2023-03-14T09:38:03;14.73;;;7.20;;
75781;SDS011;64400;44.762;37.698;2023-03-14T09:40:51;15.02;;;6.80;;
75781;SDS011;64400;44.762;37.698;2023-03-14T09:43:34;12.80;;;6.18;;
75781;SDS011;64400;44.762;37.698;2023-03-14T09:46:04;9.63;;;5.88;;
75781;SDS011;64400;44.762;37.698;2023-03-14T09:48:54;9.75;;;5.63;;
75781;SDS011;64400;44.762;37.698;2023-03-14T09:51:35;12.48;;;6.22;;
75781;SDS011;64400;44.762;37.698;2023-03-14T09:54:31;12.63;;;6.03;;
75781;SDS011;64400;44.762;37.698;2023-03-14T09:57:05;11.30;;;5.95;;
75781;SDS011;64400;44.762;37.698;2023-03-14T09:59:40;11.20;;;6.00;;
75781;SDS011;64400;44.762;37.698;2023-03-14T10:02:34;16.45;;;5.50;;
75781;SDS011;64400;44.762;37.698;2023-03-14T10:05:15;10.55;;;5.68;;
75781;SDS011;64400;44.762;37.698;2023-03-14T10:08:05;15.07;;;5.35;;
75781;SDS011;64400;44.762;37.698;2023-03-14T10:10:41;11.05;;;5.30;;
75781;SDS011;64400;44.762;37.698;2023-03-14T10:13:30;10.82;;;5.10;;
75781;SDS011;64400;44.762;37.698;2023-03-14T10:16:14;10.25;;;5.35;;
75781;SDS011;64400;44.762;37.698;2023-03-14T10:19:00;12.00;;;5.95;;
75781;SDS011;64400;44.762;37.698;2023-03-14T10:21:37;12.85;;;5.65;;
75781;SDS011;64400;44.762;37.698;2023-03-14T10:27:17;13.57;;;5.53;;
75781;SDS011;64400;44.762;37.698;2023-03-14T10:58:22;7.78;;;3.83;;
75781;SDS011;64400;44.762;37.698;2023-03-14T11:01:15;8.80;;;4.13;;
75781;SDS011;64400;44.762;37.698;2023-03-14T11:10:02;10.10;;;4.95;;
75781;SDS011;64400;44.762;37.698;2023-03-14T11:16:17;8.25;;;4.30;;
75781;SDS011;64400;44.762;37.698;2023-03-14T11:22:32;10.38;;;5.22;;
75781;SDS011;64400;44.762;37.698;2023-03-14T11:31:07;11.25;;;4.65;;
75781;SDS011;64400;44.762;37.698;2023-03-14T11:34:06;10.90;;;4.15;;
75781;SDS011;64400;44.762;37.698;2023-03-14T11:36:53;11.45;;;4.55;;
75781;SDS011;64400;44.762;37.698;2023-03-14T11:39:38;26.38;;;14.93;;
75781;SDS011;64400;44.762;37.698;2023-03-14T11:42:21;10.77;;;4.50;;
75781;SDS011;64400;44.762;37.698;2023-03-14T11:45:18;8.55;;;3.85;;
75781;SDS011;64400;44.762;37.698;2023-03-14T11:48:05;7.10;;;3.40;;
75781;SDS011;64400;44.762;37.698;2023-03-14T11:51:26;6.10;;;3.47;;
75781;SDS011;64400;44.762;37.698;2023-03-14T11:54:35;10.82;;;4.13;;
75781;SDS011;64400;44.762;37.698;2023-03-14T11:57:19;5.78;;;3.28;;
75781;SDS011;64400;44.762;37.698;2023-03-14T12:03:27;6.22;;;3.45;;
75781;SDS011;64400;44.762;37.698;2023-03-14T12:06:30;6.30;;;3.40;;
75781;SDS011;64400;44.762;37.698;2023-03-14T12:09:05;7.35;;;3.40;;
75781;SDS011;64400;44.762;37.698;2023-03-14T12:14:45;6.78;;;3.30;;
75781;SDS011;64400;44.762;37.698;2023-03-14T12:17:23;6.53;;;3.38;;
75781;SDS011;64400;44.762;37.698;2023-03-14T12:20:24;11.73;;;3.90;;
75781;SDS011;64400;44.762;37.698;2023-03-14T12:23:13;6.43;;;3.47;;
75781;SDS011;64400;44.762;37.698;2023-03-14T12:26:08;7.65;;;3.60;;
75781;SDS011;64400;44.762;37.698;2023-03-14T12:31:44;7.00;;;3.03;;
75781;SDS011;64400;44.762;37.698;2023-03-14T12:37:13;6.13;;;2.60;;
75781;SDS011;64400;44.762;37.698;2023-03-14T12:39:54;4.93;;;2.45;;
75781;SDS011;64400;44.762;37.698;2023-03-14T12:42:59;6.45;;;2.75;;
75781;SDS011;64400;44.762;37.698;2023-03-14T12:45:57;5.68;;;2.80;;
75781;SDS011;64400;44.762;37.698;2023-03-14T12:49:07;6.53;;;3.30;;
75781;SDS011;64400;44.762;37.698;2023-03-14T12:52:00;10.30;;;3.38;;
75781;SDS011;64400;44.762;37.698;2023-03-14T12:57:28;13.88;;;6.07;;
75781;SDS011;64400;44.762;37.698;2023-03-14T13:06:03;7.37;;;3.30;;
75781;SDS011;64400;44.762;37.698;2023-03-14T13:08:43;5.70;;;3.20;;
75781;SDS011;64400;44.762;37.698;2023-03-14T13:11:26;11.35;;;3.95;;
75781;SDS011;64400;44.762;37.698;2023-03-14T13:13:57;7.90;;;4.10;;
75781;SDS011;64400;44.762;37.698;2023-03-14T13:16:39;8.30;;;3.53;;
75781;SDS011;64400;44.762;37.698;2023-03-14T13:19:15;10.70;;;4.45;;
75781;SDS011;64400;44.762;37.698;2023-03-14T13:25:10;9.52;;;3.80;;
75781;SDS011;64400;44.762;37.698;2023-03-14T13:27:59;7.65;;;3.80;;
75781;SDS011;64400;44.762;37.698;2023-03-14T13:30:45;9.70;;;3.85;;
75781;SDS011;64400;44.762;37.698;2023-03-14T13:33:29;10.70;;;4.10;;
75781;SDS011;64400;44.762;37.698;2023-03-14T13:36:10;6.45;;;3.40;;
75781;SDS011;64400;44.762;37.698;2023-03-14T13:38:56;8.23;;;4.07;;
75781;SDS011;64400;44.762;37.698;2023-03-14T13:41:46;9.93;;;4.07;;
75781;SDS011;64400;44.762;37.698;2023-03-14T13:44:33;11.40;;;4.95;;
75781;SDS011;64400;44.762;37.698;2023-03-14T13:47:17;12.70;;;4.22;;
75781;SDS011;64400;44.762;37.698;2023-03-14T13:50:01;12.00;;;4.32;;
75781;SDS011;64400;44.762;37.698;2023-03-14T13:52:54;11.60;;;4.30;;
75781;SDS011;64400;44.762;37.698;2023-03-14T13:55:45;9.48;;;4.43;;
75781;SDS011;64400;44.762;37.698;2023-03-14T13:58:28;11.80;;;4.30;;
75781;SDS011;64400;44.762;37.698;2023-03-14T14:04:14;10.77;;;5.03;;
75781;SDS011;64400;44.762;37.698;2023-03-14T14:07:00;12.45;;;5.05;;
75781;SDS011;64400;44.762;37.698;2023-03-14T14:09:53;13.48;;;5.15;;
75781;SDS011;64400;44.762;37.698;2023-03-14T14:12:50;12.50;;;6.45;;
75781;SDS011;64400;44.762;37.698;2023-03-14T14:15:41;16.10;;;7.28;;
75781;SDS011;64400;44.762;37.698;2023-03-14T14:18:25;21.80;;;10.20;;
75781;SDS011;64400;44.762;37.698;2023-03-14T14:21:09;9.77;;;5.22;;
75781;SDS011;64400;44.762;37.698;2023-03-14T14:23:53;12.75;;;5.50;;
75781;SDS011;64400;44.762;37.698;2023-03-14T14:26:35;11.18;;;4.40;;
75781;SDS011;64400;44.762;37.698;2023-03-14T14:29:30;11.15;;;4.60;;
75781;SDS011;64400;44.762;37.698;2023-03-14T14:34:58;7.68;;;4.05;;
75781;SDS011;64400;44.762;37.698;2023-03-14T14:37:47;10.15;;;4.80;;
75781;SDS011;64400;44.762;37.698;2023-03-14T14:40:43;10.05;;;5.28;;
75781;SDS011;64400;44.762;37.698;2023-03-14T14:43:34;12.15;;;4.75;;
75781;SDS011;64400;44.762;37.698;2023-03-14T14:46:28;8.27;;;3.72;;
75781;SDS011;64400;44.762;37.698;2023-03-14T14:49:19;6.07;;;3.83;;
75781;SDS011;64400;44.762;37.698;2023-03-14T14:52:16;12.43;;;4.72;;
75781;SDS011;64400;44.762;37.698;2023-03-14T14:55:11;9.27;;;4.25;;
75781;SDS011;64400;44.762;37.698;2023-03-14T14:58:11;8.63;;;4.78;;
75781;SDS011;64400;44.762;37.698;2023-03-14T15:01:11;11.07;;;4.40;;
75781;SDS011;64400;44.762;37.698;2023-03-14T15:03:59;8.85;;;4.28;;
75781;SDS011;64400;44.762;37.698;2023-03-14T15:06:43;8.90;;;4.22;;
75781;SDS011;64400;44.762;37.698;2023-03-14T15:09:27;15.38;;;4.70;;
75781;SDS011;64400;44.762;37.698;2023-03-14T15:12:16;12.45;;;4.15;;
75781;SDS011;64400;44.762;37.698;2023-03-14T15:14:43;13.48;;;5.05;;
75781;SDS011;64400;44.762;37.698;2023-03-14T15:19:37;11.55;;;4.22;;
75781;SDS011;64400;44.762;37.698;2023-03-14T15:22:27;9.30;;;3.92;;
75781;SDS011;64400;44.762;37.698;2023-03-14T15:24:53;7.38;;;4.10;;
75781;SDS011;64400;44.762;37.698;2023-03-14T15:27:20;9.43;;;4.05;;
75781;SDS011;64400;44.762;37.698;2023-03-14T15:32:17;7.22;;;4.15;;
75781;SDS011;64400;44.762;37.698;2023-03-14T15:35:07;8.65;;;4.18;;
75781;SDS011;64400;44.762;37.698;2023-03-14T15:37:49;7.47;;;4.47;;
75781;SDS011;64400;44.762;37.698;2023-03-14T15:40:31;7.95;;;4.35;;
75781;SDS011;64400;44.762;37.698;2023-03-14T15:43:19;10.52;;;4.80;;
75781;SDS011;64400;44.762;37.698;2023-03-14T15:45:50;9.70;;;4.28;;
75781;SDS011;64400;44.762;37.698;2023-03-14T15:48:20;12.15;;;5.05;;
75781;SDS011;64400;44.762;37.698;2023-03-14T15:50:52;9.60;;;4.88;;
75781;SDS011;64400;44.762;37.698;2023-03-14T15:53:40;10.10;;;4.20;;
75781;SDS011;64400;44.762;37.698;2023-03-14T15:56:24;8.50;;;4.05;;
75781;SDS011;64400;44.762;37.698;2023-03-14T15:59:08;7.78;;;3.90;;
75781;SDS011;64400;44.762;37.698;2023-03-14T16:01:49;8.73;;;4.22;;
75781;SDS011;64400;44.762;37.698;2023-03-14T16:04:16;8.85;;;3.55;;
75781;SDS011;64400;44.762;37.698;2023-03-14T16:06:58;8.32;;;3.75;;
75781;SDS011;64400;44.762;37.698;2023-03-14T16:09:47;10.82;;;3.75;;
75781;SDS011;64400;44.762;37.698;2023-03-14T16:12:28;7.25;;;3.45;;
75781;SDS011;64400;44.762;37.698;2023-03-14T16:14:58;10.07;;;3.85;;
75781;SDS011;64400;44.762;37.698;2023-03-14T16:17:40;9.70;;;3.80;;
75781;SDS011;64400;44.762;37.698;2023-03-14T16:20:31;6.60;;;3.10;;
75781;SDS011;64400;44.762;37.698;2023-03-14T16:23:21;6.60;;;3.28;;
75781;SDS011;64400;44.762;37.698;2023-03-14T16:26:10;8.05;;;3.30;;
75781;SDS011;64400;44.762;37.698;2023-03-14T16:29:02;6.43;;;3.78;;
75781;SDS011;64400;44.762;37.698;2023-03-14T16:31:51;7.68;;;3.28;;
75781;SDS011;64400;44.762;37.698;2023-03-14T16:34:32;6.45;;;3.03;;
75781;SDS011;64400;44.762;37.698;2023-03-14T16:37:24;13.93;;;3.08;;
75781;SDS011;64400;44.762;37.698;2023-03-14T16:40:07;8.52;;;3.15;;
75781;SDS011;64400;44.762;37.698;2023-03-14T16:42:49;5.70;;;2.33;;
75781;SDS011;64400;44.762;37.698;2023-03-14T16:45:31;8.07;;;3.05;;
75781;SDS011;64400;44.762;37.698;2023-03-14T16:48:13;10.77;;;3.20;;
75781;SDS011;64400;44.762;37.698;2023-03-14T16:50:55;8.23;;;3.58;;
75781;SDS011;64400;44.762;37.698;2023-03-14T16:53:26;13.23;;;3.70;;
75781;SDS011;64400;44.762;37.698;2023-03-14T16:55:58;8.45;;;3.50;;
75781;SDS011;64400;44.762;37.698;2023-03-14T16:58:47;8.63;;;3.25;;
75781;SDS011;64400;44.762;37.698;2023-03-14T17:01:37;9.82;;;3.67;;
75781;SDS011;64400;44.762;37.698;2023-03-14T17:04:22;9.65;;;3.75;;
75781;SDS011;64400;44.762;37.698;2023-03-14T17:07:11;8.15;;;3.83;;
75781;SDS011;64400;44.762;37.698;2023-03-14T17:09:54;12.00;;;4.10;;
75781;SDS011;64400;44.762;37.698;2023-03-14T17:12:36;8.25;;;3.50;;
75781;SDS011;64400;44.762;37.698;2023-03-14T17:15:17;8.98;;;3.33;;
75781;SDS011;64400;44.762;37.698;2023-03-14T17:17:59;9.07;;;3.72;;
75781;SDS011;64400;44.762;37.698;2023-03-14T17:20:43;7.90;;;3.63;;
75781;SDS011;64400;44.762;37.698;2023-03-14T17:23:26;9.95;;;3.30;;
75781;SDS011;64400;44.762;37.698;2023-03-14T17:26:10;5.68;;;3.30;;
75781;SDS011;64400;44.762;37.698;2023-03-14T17:28:53;12.98;;;4.50;;
75781;SDS011;64400;44.762;37.698;2023-03-14T17:31:23;9.60;;;5.28;;
75781;SDS011;64400;44.762;37.698;2023-03-14T17:34:12;8.57;;;4.53;;
75781;SDS011;64400;44.762;37.698;2023-03-14T17:36:44;14.27;;;6.05;;
75781;SDS011;64400;44.762;37.698;2023-03-14T17:39:32;11.25;;;5.90;;
75781;SDS011;64400;44.762;37.698;2023-03-14T17:42:21;13.00;;;5.82;;